MLE weather

Malé International Airport
Malé, Malé Capital, Maldives

Public forecast

Using degrees Celsius for public forecast. Weather courtesy of forecast.io.

METAR (pilot weather report)

Retrieved 2019/04/25 13:00 UTC (46 minutes ago):

VRMM 251300Z 30005KT 9999 FEW018 BKN280 31/26 Q1008 NOSIG

TAF (pilot weather forecast)

Retrieved 2019/04/25 12:00 UTC (2 hours ago):

TAF VRMM 251100Z 2512/2618 32010KT 9999 FEW018 TEMPO 2512/2521 FEW019CB